Time;durP1;ratioP1;P1;durP2;ratioP2;P2;SDS_P1;SDS_P2;PMS_P1;PMS_P2;Temp;Humidity;BMP_temperature;BMP_pressure;BME280_temperature;BME280_humidity;BME280_pressure;Samples;Min_cycle;Max_cycle;Signal;HPM_P1;HPM_P2
2022/07/13 00:00:09;;;;;;;9.68;5.55;;;;;;;18.90;96.19;102061.34;1051804;28;20040;-87
2022/07/13 00:00:40;;;;;;;5.90;4.28;;;;;;;18.84;96.02;102065.81;1047534;28;20047;-88
2022/07/13 00:01:12;;;;;;;6.38;4.35;;;;;;;18.78;96.83;102058.69;1038142;28;20048;-87
2022/07/13 00:01:43;;;;;;;5.22;4.80;;;;;;;18.79;97.42;102063.00;1044116;28;20063;-87
2022/07/13 00:02:15;;;;;;;5.88;4.35;;;;;;;18.73;97.06;102060.47;1044796;28;20048;-88
2022/07/13 00:02:47;;;;;;;5.55;4.80;;;;;;;18.69;97.37;102068.22;1050584;28;20040;-87
2022/07/13 00:03:18;;;;;;;5.43;4.85;;;;;;;18.62;96.99;102055.88;1047949;28;20601;-87
2022/07/13 00:03:50;;;;;;;6.30;5.38;;;;;;;18.58;97.38;102062.81;1052382;28;20191;-87
2022/07/13 00:04:22;;;;;;;7.35;4.07;;;;;;;18.54;97.34;102057.09;1052130;28;20043;-88
2022/07/13 00:04:54;;;;;;;8.15;4.30;;;;;;;18.56;96.92;102049.56;1048197;28;20051;-87
2022/07/13 00:05:26;;;;;;;5.07;4.75;;;;;;;18.54;97.89;102052.50;1047792;28;20548;-88
2022/07/13 00:05:57;;;;;;;4.88;4.35;;;;;;;18.61;97.76;102046.97;1044519;28;20052;-88
2022/07/13 00:06:29;;;;;;;4.28;3.97;;;;;;;18.57;97.65;102050.38;1048789;28;20040;-88
2022/07/13 00:07:00;;;;;;;4.55;4.13;;;;;;;18.53;97.98;102047.34;1051849;28;20048;-88
2022/07/13 00:07:35;;;;;;;4.82;4.38;;;;;;;18.55;98.07;102045.22;1048479;28;20423;-88
2022/07/13 00:08:07;;;;;;;5.32;4.93;;;;;;;18.56;98.23;102049.56;1052333;28;20509;-88
2022/07/13 00:08:39;;;;;;;4.75;4.32;;;;;;;18.50;98.37;102045.13;1051860;28;20036;-87
2022/07/13 00:09:10;;;;;;;7.05;4.32;;;;;;;18.48;98.30;102048.06;1052033;28;20047;-87
2022/07/13 00:09:42;;;;;;;9.18;5.60;;;;;;;18.44;98.43;102038.00;1052313;28;20040;-87
2022/07/13 00:10:13;;;;;;;4.80;4.50;;;;;;;18.44;98.72;102041.53;1052418;28;20575;-88
2022/07/13 00:10:46;;;;;;;5.10;4.70;;;;;;;18.39;98.31;102044.13;1050965;28;20416;-87
2022/07/13 00:11:18;;;;;;;7.30;5.30;;;;;;;18.42;98.75;102040.13;1045888;28;20036;-88
2022/07/13 00:11:49;;;;;;;4.82;4.47;;;;;;;18.46;99.21;102039.41;1044457;28;20052;-88
2022/07/13 00:12:21;;;;;;;5.55;4.53;;;;;;;18.48;98.89;102044.56;1039212;28;20053;-88
2022/07/13 00:12:52;;;;;;;12.23;5.40;;;;;;;18.54;99.83;102032.78;1040290;28;20560;-88
2022/07/13 00:13:25;;;;;;;5.32;4.82;;;;;;;18.50;99.60;102039.75;1044298;28;20469;-88
2022/07/13 00:13:56;;;;;;;5.72;5.22;;;;;;;18.47;99.37;102035.66;1044855;28;20146;-88
2022/07/13 00:14:29;;;;;;;5.50;5.07;;;;;;;18.46;99.60;102034.00;1048545;28;20048;-86
2022/07/13 00:15:00;;;;;;;5.28;4.82;;;;;;;18.40;99.78;102034.16;1048035;28;20032;-88
2022/07/13 00:15:32;;;;;;;5.63;5.15;;;;;;;18.31;100.00;102028.28;1044690;28;20103;-87
2022/07/13 00:16:04;;;;;;;5.13;4.63;;;;;;;18.30;100.00;102029.34;1043953;28;20402;-86
2022/07/13 00:16:36;;;;;;;9.27;4.78;;;;;;;18.35;100.00;102026.78;1043557;28;20452;-88
2022/07/13 00:17:07;;;;;;;5.85;5.40;;;;;;;18.32;100.00;102026.41;1044448;28;20517;-87
2022/07/13 00:17:39;;;;;;;6.13;5.40;;;;;;;18.28;100.00;102030.66;1052228;28;20074;-88
2022/07/13 00:18:11;;;;;;;5.50;5.10;;;;;;;18.28;100.00;102020.69;1052229;28;20040;-88
2022/07/13 00:18:42;;;;;;;6.53;5.45;;;;;;;18.31;100.00;102025.59;1048009;28;20093;-88
2022/07/13 00:19:15;;;;;;;6.10;5.05;;;;;;;18.31;100.00;102025.59;1047914;28;20118;-87
2022/07/13 00:19:47;;;;;;;6.05;5.00;;;;;;;18.28;100.00;102028.75;1048520;28;20040;-88
2022/07/13 00:20:18;;;;;;;6.20;4.90;;;;;;;18.33;100.00;102017.25;1051714;28;20036;-88
2022/07/13 00:20:50;;;;;;;5.65;5.25;;;;;;;18.43;100.00;102017.47;1050165;28;20099;-88
2022/07/13 00:21:21;;;;;;;5.90;5.32;;;;;;;18.42;100.00;102013.16;1047470;28;20041;-87
2022/07/13 00:21:54;;;;;;;5.53;5.13;;;;;;;18.41;100.00;102020.41;1052190;28;20094;-87
2022/07/13 00:22:26;;;;;;;11.38;5.53;;;;;;;18.46;100.00;102012.41;1051851;28;20048;-88
2022/07/13 00:22:58;;;;;;;5.85;5.18;;;;;;;18.39;100.00;102016.31;1052435;28;20047;-87
2022/07/13 00:23:30;;;;;;;4.97;4.50;;;;;;;18.34;100.00;102008.91;1047770;28;20056;-87
2022/07/13 00:24:01;;;;;;;5.45;5.00;;;;;;;18.38;100.00;102003.91;1047772;28;20044;-87
2022/07/13 00:24:33;;;;;;;5.75;5.07;;;;;;;18.38;100.00;102003.91;1044558;28;20053;-87
2022/07/13 00:25:06;;;;;;;5.25;4.75;;;;;;;18.43;100.00;102001.28;1048553;28;20044;-87
2022/07/13 00:25:38;;;;;;;5.47;4.95;;;;;;;18.35;100.00;101996.25;1045191;28;20045;-87
2022/07/13 00:26:09;;;;;;;5.22;4.80;;;;;;;18.40;100.00;101997.19;1047258;28;20501;-87
2022/07/13 00:26:41;;;;;;;9.05;5.47;;;;;;;18.42;100.00;101999.66;1052165;28;20508;-87
2022/07/13 00:27:13;;;;;;;5.47;4.72;;;;;;;18.37;100.00;102002.25;1049099;28;20059;-87
2022/07/13 00:27:44;;;;;;;5.60;5.10;;;;;;;18.35;100.00;101998.94;1049311;28;20040;-85
2022/07/13 00:28:16;;;;;;;5.80;5.10;;;;;;;18.39;100.00;101994.75;1047840;28;20033;-88
2022/07/13 00:28:47;;;;;;;5.50;5.10;;;;;;;18.35;100.00;101996.25;1044444;28;20052;-87
2022/07/13 00:29:19;;;;;;;5.53;4.93;;;;;;;18.42;100.00;101999.66;1047735;28;20137;-87
2022/07/13 00:29:51;;;;;;;5.32;4.93;;;;;;;18.30;100.00;101996.16;1048606;28;20135;-88
2022/07/13 00:30:23;;;;;;;4.97;4.68;;;;;;;18.20;100.00;101997.59;1048852;28;20135;-88
2022/07/13 00:30:55;;;;;;;5.63;5.10;;;;;;;18.21;100.00;101993.03;1051812;28;20047;-88
2022/07/13 00:31:26;;;;;;;7.93;5.40;;;;;;;18.31;100.00;101992.41;1052326;28;20048;-88
2022/07/13 00:31:58;;;;;;;5.53;5.07;;;;;;;18.31;100.00;101992.41;1052291;28;20047;-87
2022/07/13 00:32:30;;;;;;;7.05;5.40;;;;;;;18.28;100.00;101993.69;1051628;28;20177;-87
2022/07/13 00:33:02;;;;;;;6.10;5.05;;;;;;;18.27;100.00;101988.53;1052180;28;20040;-88
2022/07/13 00:33:33;;;;;;;10.00;5.50;;;;;;;18.24;100.00;101987.16;1047564;28;20049;-87
2022/07/13 00:34:05;;;;;;;6.25;5.60;;;;;;;18.21;100.00;101988.44;1044208;28;20033;-88
2022/07/13 00:34:37;;;;;;;5.90;5.40;;;;;;;18.25;100.00;101990.66;1043759;28;20130;-88
2022/07/13 00:35:09;;;;;;;5.97;5.38;;;;;;;18.19;100.00;101990.56;1039692;28;20081;-88
2022/07/13 00:35:40;;;;;;;5.93;5.53;;;;;;;18.14;100.00;101986.94;1035997;28;20050;-88
2022/07/13 00:36:12;;;;;;;7.72;4.97;;;;;;;18.13;100.00;101985.31;1042902;28;20048;-89
2022/07/13 00:36:44;;;;;;;6.18;5.68;;;;;;;18.13;100.00;101986.13;1039635;28;21489;-88
2022/07/13 00:37:15;;;;;;;5.75;5.32;;;;;;;18.19;100.00;101985.19;1040133;28;20060;-88
2022/07/13 00:37:47;;;;;;;6.45;5.85;;;;;;;18.18;100.00;101983.53;1044283;28;20056;-88
2022/07/13 00:38:19;;;;;;;7.95;5.28;;;;;;;18.18;100.00;101982.72;1048471;28;20052;-88
2022/07/13 00:38:50;;;;;;;8.55;5.78;;;;;;;18.21;100.00;101983.06;1051977;28;20040;-88
2022/07/13 00:39:22;;;;;;;7.03;5.53;;;;;;;18.20;100.00;101984.13;1052108;28;20047;-88
2022/07/13 00:39:54;;;;;;;7.28;5.75;;;;;;;18.14;100.00;101977.00;1047814;28;20048;-86
2022/07/13 00:40:26;;;;;;;7.07;6.40;;;;;;;18.17;100.00;101979.19;1039728;28;20041;-88
2022/07/13 00:40:58;;;;;;;7.00;5.88;;;;;;;18.20;100.00;101975.22;1036125;28;20072;-87
2022/07/13 00:41:29;;;;;;;7.00;5.65;;;;;;;18.29;100.00;101981.03;1039398;28;20042;-87
2022/07/13 00:42:01;;;;;;;6.22;5.63;;;;;;;18.23;100.00;101980.94;1044030;28;20048;-87
2022/07/13 00:42:32;;;;;;;5.72;5.32;;;;;;;18.26;100.00;101973.44;1038836;28;20037;-87
2022/07/13 00:43:04;;;;;;;5.75;5.35;;;;;;;18.25;100.00;101978.00;1044225;28;20518;-88
2022/07/13 00:43:35;;;;;;;7.05;6.35;;;;;;;18.28;100.00;101976.69;1048304;28;20062;-88
2022/07/13 00:44:08;;;;;;;6.88;6.28;;;;;;;18.28;100.00;101979.41;1052403;28;20043;-87
2022/07/13 00:44:39;;;;;;;8.25;6.47;;;;;;;18.33;100.00;101976.78;1051830;28;20036;-87
2022/07/13 00:45:11;;;;;;;7.88;6.78;;;;;;;18.40;100.00;101977.50;1043816;28;20036;-88
2022/07/13 00:45:43;;;;;;;10.68;6.90;;;;;;;18.40;100.00;101974.78;1037692;28;20053;-88
2022/07/13 00:46:15;;;;;;;7.75;6.40;;;;;;;18.38;100.00;101971.53;1037497;28;20049;-88
2022/07/13 00:46:51;;;;;;;7.68;6.20;;;;;;;18.37;100.00;101970.69;1040346;28;20507;-88
2022/07/13 00:47:23;;;;;;;9.27;6.35;;;;;;;18.39;100.00;101978.56;1040543;28;20042;-87
2022/07/13 00:47:57;;;;;;;9.38;5.88;;;;;;;18.34;100.00;101973.84;1044559;28;20102;-87
2022/07/13 00:48:29;;;;;;;8.88;5.70;;;;;;;18.35;100.00;101962.03;1045368;28;20115;-87
2022/07/13 00:49:01;;;;;;;12.45;6.68;;;;;;;18.33;100.00;101961.44;1048449;28;20032;-88
2022/07/13 00:49:32;;;;;;;7.35;6.72;;;;;;;18.30;100.00;101958.41;1047816;28;20123;-87
2022/07/13 00:50:06;;;;;;;7.90;7.03;;;;;;;18.28;100.00;101953.25;1044628;28;20060;-88
2022/07/13 00:50:38;;;;;;;8.73;7.75;;;;;;;18.31;100.00;101943.84;1043612;28;20052;-87
2022/07/13 00:51:09;;;;;;;8.30;7.65;;;;;;;18.39;100.00;101951.56;1035610;28;20482;-88
2022/07/13 00:51:41;;;;;;;8.73;7.55;;;;;;;18.41;99.65;101939.47;1035541;28;20045;-87
2022/07/13 00:52:12;;;;;;;8.82;7.90;;;;;;;18.31;99.61;101941.97;1033050;28;20046;-87
2022/07/13 00:52:47;;;;;;;8.60;7.88;;;;;;;18.42;99.66;101935.72;1040695;28;20041;-88
2022/07/13 00:53:19;;;;;;;9.50;8.30;;;;;;;18.43;99.52;101926.56;1039414;28;20522;-88
2022/07/13 00:53:50;;;;;;;8.65;7.82;;;;;;;18.41;99.11;101933.28;1040829;28;20049;-87
2022/07/13 00:54:30;;;;;;;9.90;8.38;;;;;;;18.41;98.83;101927.88;1040512;28;20052;-87
2022/07/13 00:55:05;;;;;;;10.00;9.05;;;;;;;18.47;99.02;101927.72;1043242;28;20083;-87
2022/07/13 00:55:37;;;;;;;10.40;9.38;;;;;;;18.49;98.17;101919.38;1037904;28;20046;-87
2022/07/13 00:56:09;;;;;;;9.88;9.07;;;;;;;18.52;97.83;101927.00;1040251;28;20037;-87
2022/07/13 00:56:41;;;;;;;11.07;10.00;;;;;;;18.52;97.46;101919.72;1040000;28;20814;-88
2022/07/13 00:57:15;;;;;;;13.65;11.45;;;;;;;18.61;96.55;101928.22;1036201;28;20042;-88
2022/07/13 00:57:47;;;;;;;14.10;10.75;;;;;;;18.63;96.18;101931.56;1036357;28;20458;-88
2022/07/13 00:58:18;;;;;;;11.93;10.80;;;;;;;18.69;96.33;101929.75;1032190;28;20065;-88
2022/07/13 00:58:50;;;;;;;11.65;10.73;;;;;;;18.70;96.32;101943.00;1036779;28;20053;-88
2022/07/13 00:59:24;;;;;;;11.98;11.00;;;;;;;18.70;96.18;101945.69;1035558;28;20049;-88
2022/07/13 00:59:56;;;;;;;11.30;10.15;;;;;;;18.78;96.56;101937.19;1036118;28;20038;-87
2022/07/13 01:00:27;;;;;;;11.88;10.73;;;;;;;18.68;96.48;101942.44;1039449;28;20175;-88
2022/07/13 01:00:59;;;;;;;14.43;10.60;;;;;;;18.72;96.29;101948.16;1039784;28;20057;-88
2022/07/13 01:01:32;;;;;;;11.75;10.60;;;;;;;18.72;96.77;101946.28;1044501;28;20052;-88
2022/07/13 01:02:04;;;;;;;11.70;10.48;;;;;;;18.76;96.43;101952.81;1047701;28;20040;-88
2022/07/13 01:02:40;;;;;;;11.65;10.45;;;;;;;18.74;96.93;101954.13;1048618;28;20078;-89
2022/07/13 01:03:12;;;;;;;11.23;10.20;;;;;;;18.67;96.97;101958.88;1052099;28;20063;-88
2022/07/13 01:03:43;;;;;;;11.65;10.43;;;;;;;18.70;97.51;101953.81;1047212;28;20041;-88
2022/07/13 01:04:15;;;;;;;11.93;10.85;;;;;;;18.69;96.97;101952.16;1047795;28;20044;-88
2022/07/13 01:04:47;;;;;;;10.80;9.93;;;;;;;18.69;96.89;101956.75;1043566;28;20498;-86
2022/07/13 01:05:19;;;;;;;11.00;10.10;;;;;;;18.69;96.80;101945.94;1044458;28;20525;-88
2022/07/13 01:05:52;;;;;;;10.52;9.55;;;;;;;18.47;97.33;101948.47;1043541;28;20096;-88
2022/07/13 01:06:24;;;;;;;11.48;10.48;;;;;;;18.46;98.00;101947.66;1044303;28;20529;-88
2022/07/13 01:06:56;;;;;;;10.77;9.77;;;;;;;18.49;98.53;101949.06;1048075;28;20043;-88
2022/07/13 01:07:30;;;;;;;11.73;10.30;;;;;;;18.36;99.13;101952.06;1035622;28;20149;-88
2022/07/13 01:08:03;;;;;;;12.27;10.98;;;;;;;18.34;99.19;101954.16;1035991;28;20049;-88
2022/07/13 01:08:35;;;;;;;10.88;10.07;;;;;;;18.38;99.72;101949.94;1035489;28;20527;-88
2022/07/13 01:09:07;;;;;;;11.00;10.10;;;;;;;18.28;99.73;101944.34;1033363;28;20038;-88
2022/07/13 01:09:39;;;;;;;11.65;10.65;;;;;;;18.31;99.96;101949.25;1040770;28;20414;-87
2022/07/13 01:10:13;;;;;;;12.63;11.32;;;;;;;18.32;100.00;101950.88;1044511;28;20130;-88
2022/07/13 01:10:48;;;;;;;11.23;10.32;;;;;;;18.28;100.00;101938.94;1038868;28;20053;-87
2022/07/13 01:11:19;;;;;;;12.00;10.73;;;;;;;18.32;100.00;101943.59;1036720;28;20034;-88
2022/07/13 01:11:52;;;;;;;12.00;10.93;;;;;;;18.17;100.00;101946.84;1040510;28;20037;-88
2022/07/13 01:12:23;;;;;;;11.45;10.23;;;;;;;18.16;100.00;101936.28;1044277;28;20037;-88
2022/07/13 01:12:55;;;;;;;11.93;10.63;;;;;;;18.16;100.00;101939.81;1044418;28;20044;-88
2022/07/13 01:13:27;;;;;;;17.48;10.02;;;;;;;18.20;100.00;101943.66;1043881;28;20052;-88
2022/07/13 01:14:00;;;;;;;11.77;10.77;;;;;;;18.20;100.00;101943.66;1039996;28;20037;-88
2022/07/13 01:14:33;;;;;;;12.85;11.73;;;;;;;18.21;100.00;101939.91;1044244;28;20205;-88
2022/07/13 01:15:05;;;;;;;11.52;10.43;;;;;;;18.13;100.00;101932.19;1040379;28;20104;-88
2022/07/13 01:15:37;;;;;;;11.65;10.73;;;;;;;18.11;100.00;101937.03;1040590;28;20262;-87
2022/07/13 01:16:09;;;;;;;11.35;10.45;;;;;;;18.10;100.00;101938.09;1036657;28;20037;-87
2022/07/13 01:16:41;;;;;;;12.50;10.65;;;;;;;18.10;100.00;101938.09;1036862;28;20042;-87
2022/07/13 01:17:13;;;;;;;11.48;10.50;;;;;;;17.99;100.00;101935.41;1040498;28;20041;-87
2022/07/13 01:17:45;;;;;;;15.30;10.82;;;;;;;18.05;100.00;101929.88;1044242;28;20502;-86
2022/07/13 01:18:16;;;;;;;11.75;10.65;;;;;;;18.13;100.00;101934.91;1048174;28;20043;-87
2022/07/13 01:18:49;;;;;;;11.95;10.75;;;;;;;18.09;100.00;101928.34;1051753;28;20047;-88
2022/07/13 01:19:21;;;;;;;12.13;11.18;;;;;;;17.90;100.00;101926.88;1047125;28;20051;-88
2022/07/13 01:19:53;;;;;;;12.57;11.32;;;;;;;17.91;100.00;101934.72;1047787;28;20433;-88
2022/07/13 01:20:26;;;;;;;14.27;11.02;;;;;;;17.92;100.00;101927.44;1043585;28;20045;-88
2022/07/13 01:20:59;;;;;;;11.73;10.68;;;;;;;17.96;100.00;101925.09;1040357;28;20043;-88
2022/07/13 01:21:32;;;;;;;12.15;11.07;;;;;;;17.95;100.00;101929.66;1044582;28;20041;-88
2022/07/13 01:22:06;;;;;;;12.07;10.88;;;;;;;17.87;100.00;101925.47;1048780;28;20052;-88
2022/07/13 01:22:42;;;;;;;10.65;9.85;;;;;;;17.87;100.00;101927.34;1044519;28;20502;-88
2022/07/13 01:23:15;;;;;;;11.50;10.60;;;;;;;17.86;100.00;101925.72;1043855;28;20048;-88
2022/07/13 01:23:47;;;;;;;11.45;10.35;;;;;;;17.83;100.00;101921.63;1043586;28;20041;-88
2022/07/13 01:24:19;;;;;;;12.82;11.55;;;;;;;17.80;100.00;101915.88;1041807;28;20123;-88
2022/07/13 01:24:52;;;;;;;11.02;10.02;;;;;;;17.81;100.00;101928.31;1044278;28;20128;-88
2022/07/13 01:25:23;;;;;;;10.93;9.93;;;;;;;17.78;100.00;101928.75;1043628;28;20044;-88
2022/07/13 01:25:56;;;;;;;11.35;10.35;;;;;;;17.84;100.00;101927.84;1038166;28;20052;-88
2022/07/13 01:26:28;;;;;;;12.27;10.57;;;;;;;17.94;100.00;101929.91;1043979;28;20049;-86
2022/07/13 01:27:00;;;;;;;18.92;11.43;;;;;;;17.90;100.00;101925.00;1044404;28;20036;-88
2022/07/13 01:27:34;;;;;;;31.02;12.57;;;;;;;17.86;100.00;101937.31;1044169;28;20064;-88
2022/07/13 01:28:06;;;;;;;32.88;11.88;;;;;;;17.86;100.00;101925.72;1039367;28;20108;-87
2022/07/13 01:28:37;;;;;;;22.33;11.82;;;;;;;17.91;100.00;101928.50;1036201;28;20050;-88
2022/07/13 01:29:09;;;;;;;36.28;12.25;;;;;;;17.91;100.00;101928.50;1039429;28;20498;-88
2022/07/13 01:29:41;;;;;;;21.00;11.82;;;;;;;17.95;100.00;101929.66;1040610;28;20037;-88
2022/07/13 01:30:14;;;;;;;22.15;11.10;;;;;;;18.00;100.00;101926.25;1044908;28;20087;-87
2022/07/13 01:30:45;;;;;;;15.27;10.55;;;;;;;17.99;100.00;101925.44;1043486;28;20056;-88
2022/07/13 01:31:37;;;;;;;23.02;11.38;;;;;;;17.97;100.00;101926.72;1039496;28;20601;-88
2022/07/13 01:32:09;;;;;;;19.17;11.20;;;;;;;17.99;100.00;101921.91;1042310;28;20057;-88
2022/07/13 01:32:45;;;;;;;12.32;10.23;;;;;;;18.02;100.00;101922.25;1046319;28;20053;-88
2022/07/13 01:33:17;;;;;;;17.48;11.05;;;;;;;17.92;100.00;101922.88;1051726;28;20554;-88
2022/07/13 01:33:50;;;;;;;22.73;11.63;;;;;;;17.82;100.00;101913.78;1051738;28;20478;-88
2022/07/13 01:34:21;;;;;;;16.40;11.85;;;;;;;17.89;100.00;101915.28;1052140;28;20110;-87
2022/07/13 01:34:53;;;;;;;15.00;10.77;;;;;;;17.89;100.00;101909.06;1047291;28;20041;-87
2022/07/13 01:35:25;;;;;;;15.98;10.25;;;;;;;17.96;100.00;101915.13;1051652;28;20047;-87
2022/07/13 01:35:56;;;;;;;10.98;9.88;;;;;;;18.00;100.00;101910.91;1046409;28;20497;-88
2022/07/13 01:36:28;;;;;;;12.10;10.88;;;;;;;18.01;100.00;101917.91;1052170;28;20082;-88
2022/07/13 01:37:00;;;;;;;11.18;10.00;;;;;;;18.08;100.00;101915.94;1047748;28;20032;-86
2022/07/13 01:37:32;;;;;;;11.38;10.25;;;;;;;18.14;100.00;101919.53;1044139;28;20045;-88
2022/07/13 01:38:04;;;;;;;11.27;10.25;;;;;;;18.14;100.00;101912.25;1043873;28;20106;-87
2022/07/13 01:38:35;;;;;;;10.98;10.00;;;;;;;18.13;100.00;101920.59;1039998;28;20052;-86
2022/07/13 01:39:07;;;;;;;10.70;9.80;;;;;;;18.11;100.00;101928.94;1043728;28;20037;-88
2022/07/13 01:39:40;;;;;;;10.80;9.70;;;;;;;18.08;100.00;101921.31;1044421;28;20521;-88
2022/07/13 01:40:13;;;;;;;10.90;9.90;;;;;;;18.11;100.00;101915.44;1045090;28;20135;-87
2022/07/13 01:40:44;;;;;;;11.77;9.60;;;;;;;18.21;100.00;101923.72;1043601;28;20045;-88
2022/07/13 01:41:19;;;;;;;11.05;10.10;;;;;;;18.21;100.00;101912.94;1036085;28;20052;-88
2022/07/13 01:41:52;;;;;;;12.63;10.45;;;;;;;18.21;100.00;101917.50;1032060;28;20034;-88
2022/07/13 01:42:23;;;;;;;11.70;10.63;;;;;;;18.22;100.00;101925.38;1036617;28;20037;-89
2022/07/13 01:42:55;;;;;;;10.73;9.68;;;;;;;18.13;100.00;101920.59;1041243;28;20037;-87
2022/07/13 01:43:28;;;;;;;11.20;10.05;;;;;;;18.05;100.00;101923.66;1043949;28;20522;-88
2022/07/13 01:44:00;;;;;;;11.05;10.15;;;;;;;17.98;100.00;101918.41;1043806;28;20041;-88
2022/07/13 01:44:31;;;;;;;10.23;9.23;;;;;;;17.88;100.00;101923.59;1033580;28;20059;-88
2022/07/13 01:45:05;;;;;;;11.70;10.55;;;;;;;17.94;100.00;101922.63;1039469;28;20045;-88
2022/07/13 01:45:36;;;;;;;10.98;10.02;;;;;;;17.99;100.00;101925.44;1038942;28;20450;-88
2022/07/13 01:46:10;;;;;;;16.38;10.02;;;;;;;18.04;100.00;101925.53;1038866;28;20399;-88
2022/07/13 01:46:41;;;;;;;11.13;10.07;;;;;;;18.09;100.00;101925.66;1041167;28;20557;-88
2022/07/13 01:47:13;;;;;;;10.27;9.32;;;;;;;18.15;100.00;101918.47;1040205;28;20191;-88
2022/07/13 01:47:47;;;;;;;12.85;9.90;;;;;;;18.16;100.00;101926.31;1040101;28;20518;-88
2022/07/13 01:48:19;;;;;;;11.15;9.50;;;;;;;18.22;100.00;101919.97;1040417;28;20103;-87
2022/07/13 01:48:51;;;;;;;11.35;10.45;;;;;;;18.15;100.00;101913.91;1044162;28;20092;-88
2022/07/13 01:49:23;;;;;;;10.65;9.75;;;;;;;18.20;100.00;101921.28;1041708;28;20429;-88
2022/07/13 01:49:54;;;;;;;10.52;9.52;;;;;;;18.25;100.00;101912.44;1046818;28;20045;-88
2022/07/13 01:50:29;;;;;;;9.57;8.88;;;;;;;18.34;100.00;101924.47;1047756;28;20048;-87
2022/07/13 01:51:01;;;;;;;10.50;9.50;;;;;;;18.34;100.00;101914.50;1040466;28;20045;-88
2022/07/13 01:51:33;;;;;;;10.65;9.80;;;;;;;18.35;100.00;101913.47;1043590;28;20534;-88
2022/07/13 01:52:05;;;;;;;11.18;10.18;;;;;;;18.39;100.00;101911.94;1043499;28;20111;-88
2022/07/13 01:52:37;;;;;;;10.95;9.98;;;;;;;18.36;100.00;101917.00;1042419;28;20072;-88
2022/07/13 01:53:08;;;;;;;12.55;9.63;;;;;;;18.38;100.00;101917.56;1051790;28;20055;-87
2022/07/13 01:53:40;;;;;;;10.50;9.45;;;;;;;18.38;100.00;101917.56;1047718;28;20131;-88
2022/07/13 01:54:12;;;;;;;11.07;9.98;;;;;;;18.40;100.00;101916.25;1043839;28;20041;-88
2022/07/13 01:54:44;;;;;;;11.95;9.77;;;;;;;18.41;100.00;101917.09;1039221;28;20053;-88
2022/07/13 01:55:16;;;;;;;11.15;10.05;;;;;;;18.40;100.00;101923.53;1040096;28;20042;-88
2022/07/13 01:55:49;;;;;;;10.30;9.32;;;;;;;18.22;100.00;101919.97;1040257;28;20048;-89
2022/07/13 01:56:20;;;;;;;10.38;9.52;;;;;;;18.21;100.00;101918.34;1043434;28;20056;-88
2022/07/13 01:56:53;;;;;;;10.77;9.45;;;;;;;18.10;100.00;101926.47;1047749;28;20063;-88
2022/07/13 01:57:24;;;;;;;13.23;9.35;;;;;;;18.14;100.00;101917.66;1043952;28;20387;-88
2022/07/13 01:57:58;;;;;;;9.68;8.88;;;;;;;18.13;100.00;101920.59;1047735;28;20410;-88
2022/07/13 01:58:30;;;;;;;10.15;9.30;;;;;;;18.05;100.00;101921.78;1040709;28;20037;-87
2022/07/13 01:59:02;;;;;;;10.07;9.05;;;;;;;18.07;100.00;101919.66;1039741;28;20065;-87
2022/07/13 01:59:34;;;;;;;10.10;9.30;;;;;;;18.10;100.00;101921.09;1039496;28;20033;-88
2022/07/13 02:00:09;;;;;;;10.90;9.27;;;;;;;18.10;100.00;101916.50;1040749;28;20416;-88
2022/07/13 02:00:43;;;;;;;10.38;9.57;;;;;;;18.13;100.00;101916.03;1048959;28;20048;-88
2022/07/13 02:01:14;;;;;;;9.80;9.02;;;;;;;18.16;100.00;101925.50;1051453;28;20040;-87
2022/07/13 02:01:48;;;;;;;10.38;9.48;;;;;;;18.19;100.00;101919.63;1045145;28;20045;-87
2022/07/13 02:02:20;;;;;;;10.35;9.48;;;;;;;18.21;100.00;101929.13;1043332;28;20045;-88
2022/07/13 02:02:52;;;;;;;10.43;9.38;;;;;;;18.25;100.00;101917.84;1039989;28;20041;-88
2022/07/13 02:03:31;;;;;;;10.75;9.95;;;;;;;18.30;100.00;101920.63;1036777;28;20042;-88
2022/07/13 02:04:03;;;;;;;11.18;10.18;;;;;;;18.32;100.00;101921.22;1031951;28;20415;-88
2022/07/13 02:04:36;;;;;;;9.88;9.00;;;;;;;18.33;100.00;101922.84;1039685;28;20048;-89
2022/07/13 02:05:09;;;;;;;12.88;9.45;;;;;;;18.27;100.00;101918.41;1042064;28;20053;-88
2022/07/13 02:05:43;;;;;;;9.35;8.48;;;;;;;18.20;100.00;101922.09;1044864;28;20053;-89
2022/07/13 02:06:14;;;;;;;9.98;9.15;;;;;;;18.11;100.00;101915.44;1040312;28;20060;-89
2022/07/13 02:06:46;;;;;;;9.10;8.30;;;;;;;18.06;100.00;101917.19;1043219;28;20060;-88
2022/07/13 02:07:17;;;;;;;9.95;8.52;;;;;;;18.04;100.00;101917.44;1043904;28;20054;-87
2022/07/13 02:07:50;;;;;;;8.25;7.55;;;;;;;18.11;100.00;101917.31;1040148;28;20048;-87
2022/07/13 02:08:22;;;;;;;10.82;7.60;;;;;;;18.15;100.00;101908.50;1035222;28;20046;-88
2022/07/13 02:08:53;;;;;;;9.90;9.20;;;;;;;18.04;100.00;101906.66;1035752;28;20045;-88
2022/07/13 02:09:26;;;;;;;9.25;8.35;;;;;;;18.07;100.00;101905.34;1035713;28;20053;-88
2022/07/13 02:09:58;;;;;;;8.57;7.85;;;;;;;17.99;100.00;101901.16;1035504;28;20041;-88
2022/07/13 02:10:36;;;;;;;8.15;7.47;;;;;;;18.07;100.00;101903.47;1039298;28;20037;-88
2022/07/13 02:11:15;;;;;;;8.60;7.80;;;;;;;18.00;100.00;101900.13;1035501;28;20127;-88
2022/07/13 02:11:47;;;;;;;11.95;7.80;;;;;;;17.96;100.00;101890.88;1030738;28;20042;-87
2022/07/13 02:12:20;;;;;;;8.43;7.55;;;;;;;17.92;100.00;101892.41;1037560;28;20041;-87
2022/07/13 02:12:52;;;;;;;8.75;7.88;;;;;;;17.84;100.00;101890.09;1036988;28;20045;-87
2022/07/13 02:13:24;;;;;;;7.82;7.13;;;;;;;17.84;100.00;101890.91;1037135;28;20518;-88
2022/07/13 02:13:55;;;;;;;9.77;8.63;;;;;;;17.91;100.00;101885.38;1048260;28;20037;-88
2022/07/13 02:14:27;;;;;;;8.75;7.75;;;;;;;17.88;100.00;101888.56;1051868;28;20113;-88
2022/07/13 02:14:59;;;;;;;10.55;7.78;;;;;;;17.84;100.00;101882.00;1052000;28;20405;-88
2022/07/13 02:15:30;;;;;;;9.63;8.48;;;;;;;17.77;100.00;101878.63;1043269;28;20045;-87
2022/07/13 02:16:02;;;;;;;9.63;8.43;;;;;;;17.78;100.00;101886.47;1043590;28;20052;-88
2022/07/13 02:16:34;;;;;;;7.97;7.28;;;;;;;17.77;100.00;101884.00;1039658;28;20419;-88
2022/07/13 02:17:06;;;;;;;9.63;8.80;;;;;;;17.73;100.00;101882.84;1042183;28;20403;-88
2022/07/13 02:17:38;;;;;;;8.35;7.75;;;;;;;17.74;100.00;101879.91;1051358;28;20043;-88
2022/07/13 02:18:10;;;;;;;9.48;8.13;;;;;;;17.72;100.00;101881.22;1039241;28;20160;-86
2022/07/13 02:18:42;;;;;;;9.25;8.15;;;;;;;17.71;100.00;101879.56;1036136;28;20060;-88
2022/07/13 02:19:14;;;;;;;9.75;7.72;;;;;;;17.74;100.00;101873.69;1036242;28;20432;-88
2022/07/13 02:19:45;;;;;;;10.65;8.02;;;;;;;17.75;100.00;101878.03;1040493;28;20064;-88
2022/07/13 02:20:18;;;;;;;8.48;7.72;;;;;;;17.81;100.00;101879.81;1044084;28;20445;-88
2022/07/13 02:20:50;;;;;;;9.55;8.65;;;;;;;17.80;100.00;101872.75;1039643;28;20037;-88
2022/07/13 02:21:21;;;;;;;9.27;7.68;;;;;;;17.84;100.00;101873.94;1047646;28;20033;-88
2022/07/13 02:21:53;;;;;;;10.88;8.40;;;;;;;17.82;100.00;101876.03;1043188;28;20040;-88
2022/07/13 02:22:24;;;;;;;9.27;8.40;;;;;;;17.78;100.00;101872.97;1044120;28;20139;-88
2022/07/13 02:22:57;;;;;;;8.90;8.02;;;;;;;17.80;100.00;101878.13;1047488;28;20044;-87
2022/07/13 02:23:31;;;;;;;7.88;7.28;;;;;;;17.77;100.00;101870.53;1048743;28;20135;-88
2022/07/13 02:24:03;;;;;;;10.57;7.70;;;;;;;17.82;100.00;101876.88;1051733;28;20048;-87
2022/07/13 02:24:34;;;;;;;8.38;7.60;;;;;;;17.82;100.00;101870.66;1051820;28;20464;-88
2022/07/13 02:25:07;;;;;;;8.80;8.05;;;;;;;17.80;100.00;101872.75;1047314;28;20460;-88
2022/07/13 02:25:38;;;;;;;9.18;8.32;;;;;;;17.81;100.00;101871.72;1048188;28;20041;-88
2022/07/13 02:26:10;;;;;;;9.25;8.40;;;;;;;17.84;100.00;101865.84;1045281;28;20044;-88
2022/07/13 02:26:43;;;;;;;14.52;8.73;;;;;;;17.80;100.00;101861.97;1042174;28;20462;-88
2022/07/13 02:27:15;;;;;;;9.48;8.57;;;;;;;17.87;100.00;101873.44;1047287;28;20127;-88